sensor_id;sensor_type;location;lat;lon;timestamp;P1;durP1;ratioP1;P2;durP2;ratioP2
22660;SDS011;11497;52.222;21.246;2023-01-15T00:01:43;24.85;;;12.48;;
22660;SDS011;11497;52.222;21.246;2023-01-15T00:04:11;25.67;;;12.52;;
22660;SDS011;11497;52.222;21.246;2023-01-15T00:06:40;26.33;;;13.48;;
22660;SDS011;11497;52.222;21.246;2023-01-15T00:09:12;24.20;;;12.25;;
22660;SDS011;11497;52.222;21.246;2023-01-15T00:11:41;19.50;;;10.15;;
22660;SDS011;11497;52.222;21.246;2023-01-15T00:14:09;23.77;;;11.98;;
22660;SDS011;11497;52.222;21.246;2023-01-15T00:16:38;21.42;;;12.32;;
22660;SDS011;11497;52.222;21.246;2023-01-15T00:19:06;23.63;;;10.73;;
22660;SDS011;11497;52.222;21.246;2023-01-15T00:21:36;24.42;;;11.65;;
22660;SDS011;11497;52.222;21.246;2023-01-15T00:24:04;24.63;;;12.38;;
22660;SDS011;11497;52.222;21.246;2023-01-15T00:26:51;23.02;;;12.10;;
22660;SDS011;11497;52.222;21.246;2023-01-15T00:29:38;19.85;;;9.48;;
22660;SDS011;11497;52.222;21.246;2023-01-15T00:32:06;24.15;;;11.82;;
22660;SDS011;11497;52.222;21.246;2023-01-15T00:34:34;15.27;;;7.07;;
22660;SDS011;11497;52.222;21.246;2023-01-15T00:37:02;23.00;;;11.80;;
22660;SDS011;11497;52.222;21.246;2023-01-15T00:39:31;19.35;;;10.60;;
22660;SDS011;11497;52.222;21.246;2023-01-15T00:42:01;19.40;;;11.02;;
22660;SDS011;11497;52.222;21.246;2023-01-15T00:44:31;20.00;;;11.32;;
22660;SDS011;11497;52.222;21.246;2023-01-15T00:46:59;22.15;;;10.35;;
22660;SDS011;11497;52.222;21.246;2023-01-15T00:49:28;20.90;;;10.15;;
22660;SDS011;11497;52.222;21.246;2023-01-15T00:51:56;20.70;;;10.93;;
22660;SDS011;11497;52.222;21.246;2023-01-15T00:54:24;20.05;;;10.75;;
22660;SDS011;11497;52.222;21.246;2023-01-15T00:56:52;19.48;;;10.15;;
22660;SDS011;11497;52.222;21.246;2023-01-15T00:59:19;21.92;;;10.20;;
22660;SDS011;11497;52.222;21.246;2023-01-15T01:01:47;20.70;;;10.70;;
22660;SDS011;11497;52.222;21.246;2023-01-15T01:04:15;20.98;;;11.35;;
22660;SDS011;11497;52.222;21.246;2023-01-15T01:06:43;22.30;;;10.93;;
22660;SDS011;11497;52.222;21.246;2023-01-15T01:09:12;21.63;;;11.55;;
22660;SDS011;11497;52.222;21.246;2023-01-15T01:11:42;20.85;;;11.13;;
22660;SDS011;11497;52.222;21.246;2023-01-15T01:14:10;19.67;;;10.52;;
22660;SDS011;11497;52.222;21.246;2023-01-15T01:16:40;20.35;;;10.27;;
22660;SDS011;11497;52.222;21.246;2023-01-15T01:19:10;19.13;;;10.40;;
22660;SDS011;11497;52.222;21.246;2023-01-15T01:21:44;16.50;;;8.68;;
22660;SDS011;11497;52.222;21.246;2023-01-15T01:24:18;18.48;;;9.50;;
22660;SDS011;11497;52.222;21.246;2023-01-15T01:26:48;21.88;;;9.88;;
22660;SDS011;11497;52.222;21.246;2023-01-15T01:29:21;19.60;;;10.20;;
22660;SDS011;11497;52.222;21.246;2023-01-15T01:31:49;19.85;;;10.82;;
22660;SDS011;11497;52.222;21.246;2023-01-15T01:34:17;17.58;;;9.07;;
22660;SDS011;11497;52.222;21.246;2023-01-15T01:36:45;17.10;;;9.73;;
22660;SDS011;11497;52.222;21.246;2023-01-15T01:39:14;20.40;;;10.23;;
22660;SDS011;11497;52.222;21.246;2023-01-15T01:41:44;18.13;;;9.82;;
22660;SDS011;11497;52.222;21.246;2023-01-15T01:47:09;17.67;;;10.48;;
22660;SDS011;11497;52.222;21.246;2023-01-15T01:49:41;17.42;;;8.77;;
22660;SDS011;11497;52.222;21.246;2023-01-15T01:52:12;21.13;;;9.90;;
22660;SDS011;11497;52.222;21.246;2023-01-15T01:54:46;19.90;;;10.57;;
22660;SDS011;11497;52.222;21.246;2023-01-15T01:57:17;20.83;;;10.85;;
22660;SDS011;11497;52.222;21.246;2023-01-15T01:59:47;21.85;;;10.48;;
22660;SDS011;11497;52.222;21.246;2023-01-15T02:02:15;20.65;;;10.23;;
22660;SDS011;11497;52.222;21.246;2023-01-15T02:04:48;22.55;;;10.77;;
22660;SDS011;11497;52.222;21.246;2023-01-15T02:07:17;21.90;;;10.52;;
22660;SDS011;11497;52.222;21.246;2023-01-15T02:09:44;16.30;;;8.93;;
22660;SDS011;11497;52.222;21.246;2023-01-15T02:12:18;18.08;;;10.43;;
22660;SDS011;11497;52.222;21.246;2023-01-15T02:15:25;19.08;;;8.90;;
22660;SDS011;11497;52.222;21.246;2023-01-15T02:18:00;17.02;;;8.48;;
22660;SDS011;11497;52.222;21.246;2023-01-15T02:20:56;22.92;;;10.55;;
22660;SDS011;11497;52.222;21.246;2023-01-15T02:23:46;21.98;;;10.82;;
22660;SDS011;11497;52.222;21.246;2023-01-15T02:29:15;21.42;;;10.73;;
22660;SDS011;11497;52.222;21.246;2023-01-15T02:31:50;24.50;;;11.32;;
22660;SDS011;11497;52.222;21.246;2023-01-15T02:34:20;21.15;;;10.48;;
22660;SDS011;11497;52.222;21.246;2023-01-15T02:37:00;23.73;;;10.00;;
22660;SDS011;11497;52.222;21.246;2023-01-15T02:39:33;22.63;;;10.93;;
22660;SDS011;11497;52.222;21.246;2023-01-15T02:42:07;19.10;;;9.13;;
22660;SDS011;11497;52.222;21.246;2023-01-15T02:44:45;24.25;;;10.73;;
22660;SDS011;11497;52.222;21.246;2023-01-15T02:47:16;15.50;;;8.05;;
22660;SDS011;11497;52.222;21.246;2023-01-15T02:49:50;21.33;;;10.57;;
22660;SDS011;11497;52.222;21.246;2023-01-15T02:52:33;21.30;;;10.18;;
22660;SDS011;11497;52.222;21.246;2023-01-15T02:55:16;18.83;;;9.27;;
22660;SDS011;11497;52.222;21.246;2023-01-15T02:57:50;19.42;;;10.10;;
22660;SDS011;11497;52.222;21.246;2023-01-15T03:00:21;23.58;;;10.20;;
22660;SDS011;11497;52.222;21.246;2023-01-15T03:03:02;18.42;;;9.13;;
22660;SDS011;11497;52.222;21.246;2023-01-15T03:05:39;16.88;;;8.63;;
22660;SDS011;11497;52.222;21.246;2023-01-15T03:08:30;21.17;;;9.57;;
22660;SDS011;11497;52.222;21.246;2023-01-15T03:11:11;20.30;;;9.85;;
22660;SDS011;11497;52.222;21.246;2023-01-15T03:19:11;21.52;;;9.85;;
22660;SDS011;11497;52.222;21.246;2023-01-15T03:22:07;19.60;;;9.05;;
22660;SDS011;11497;52.222;21.246;2023-01-15T03:24:53;18.50;;;8.38;;
22660;SDS011;11497;52.222;21.246;2023-01-15T03:27:32;15.27;;;6.97;;
22660;SDS011;11497;52.222;21.246;2023-01-15T03:30:08;17.48;;;9.38;;
22660;SDS011;11497;52.222;21.246;2023-01-15T03:32:41;16.80;;;9.07;;
22660;SDS011;11497;52.222;21.246;2023-01-15T03:38:34;16.05;;;7.93;;
22660;SDS011;11497;52.222;21.246;2023-01-15T03:51:57;15.05;;;6.85;;
22660;SDS011;11497;52.222;21.246;2023-01-15T03:54:34;15.15;;;6.82;;
22660;SDS011;11497;52.222;21.246;2023-01-15T03:59:50;16.30;;;7.45;;
22660;SDS011;11497;52.222;21.246;2023-01-15T04:02:21;11.50;;;4.88;;
22660;SDS011;11497;52.222;21.246;2023-01-15T04:04:51;16.13;;;6.97;;
22660;SDS011;11497;52.222;21.246;2023-01-15T04:07:21;11.75;;;6.03;;
22660;SDS011;11497;52.222;21.246;2023-01-15T04:09:50;13.13;;;7.35;;
22660;SDS011;11497;52.222;21.246;2023-01-15T04:12:19;12.38;;;7.15;;
22660;SDS011;11497;52.222;21.246;2023-01-15T04:14:47;11.52;;;6.63;;
22660;SDS011;11497;52.222;21.246;2023-01-15T04:17:19;12.02;;;6.38;;
22660;SDS011;11497;52.222;21.246;2023-01-15T04:19:47;12.10;;;6.85;;
22660;SDS011;11497;52.222;21.246;2023-01-15T04:22:14;12.32;;;6.65;;
22660;SDS011;11497;52.222;21.246;2023-01-15T04:24:43;10.77;;;6.15;;
22660;SDS011;11497;52.222;21.246;2023-01-15T04:27:10;12.82;;;5.93;;
22660;SDS011;11497;52.222;21.246;2023-01-15T04:29:39;9.25;;;6.00;;
22660;SDS011;11497;52.222;21.246;2023-01-15T04:32:06;15.60;;;6.47;;
22660;SDS011;11497;52.222;21.246;2023-01-15T04:34:34;13.30;;;6.40;;
22660;SDS011;11497;52.222;21.246;2023-01-15T04:37:02;10.70;;;6.18;;
22660;SDS011;11497;52.222;21.246;2023-01-15T04:39:30;9.95;;;5.88;;
22660;SDS011;11497;52.222;21.246;2023-01-15T04:41:58;11.88;;;5.97;;
22660;SDS011;11497;52.222;21.246;2023-01-15T04:44:45;10.23;;;5.57;;
22660;SDS011;11497;52.222;21.246;2023-01-15T04:47:12;12.93;;;5.90;;
22660;SDS011;11497;52.222;21.246;2023-01-15T04:49:40;11.38;;;6.13;;
22660;SDS011;11497;52.222;21.246;2023-01-15T04:52:08;8.13;;;4.82;;
22660;SDS011;11497;52.222;21.246;2023-01-15T04:54:36;10.73;;;6.20;;
22660;SDS011;11497;52.222;21.246;2023-01-15T04:57:04;10.18;;;5.47;;
22660;SDS011;11497;52.222;21.246;2023-01-15T04:59:32;10.07;;;5.60;;
22660;SDS011;11497;52.222;21.246;2023-01-15T05:02:00;8.57;;;4.55;;
22660;SDS011;11497;52.222;21.246;2023-01-15T05:04:32;10.77;;;6.18;;
22660;SDS011;11497;52.222;21.246;2023-01-15T05:07:02;11.30;;;6.15;;
22660;SDS011;11497;52.222;21.246;2023-01-15T05:09:31;10.75;;;5.90;;
22660;SDS011;11497;52.222;21.246;2023-01-15T05:11:58;10.73;;;5.50;;
22660;SDS011;11497;52.222;21.246;2023-01-15T05:14:27;10.52;;;5.10;;
22660;SDS011;11497;52.222;21.246;2023-01-15T05:16:54;9.38;;;5.20;;
22660;SDS011;11497;52.222;21.246;2023-01-15T05:19:22;9.93;;;5.63;;
22660;SDS011;11497;52.222;21.246;2023-01-15T05:21:51;10.98;;;5.32;;
22660;SDS011;11497;52.222;21.246;2023-01-15T05:24:19;9.15;;;5.18;;
22660;SDS011;11497;52.222;21.246;2023-01-15T05:26:47;9.60;;;5.20;;
22660;SDS011;11497;52.222;21.246;2023-01-15T05:29:15;8.70;;;5.13;;
22660;SDS011;11497;52.222;21.246;2023-01-15T05:31:42;6.95;;;4.35;;
22660;SDS011;11497;52.222;21.246;2023-01-15T05:34:11;7.28;;;4.18;;
22660;SDS011;11497;52.222;21.246;2023-01-15T05:36:39;9.77;;;5.63;;
22660;SDS011;11497;52.222;21.246;2023-01-15T05:39:07;6.57;;;4.60;;
22660;SDS011;11497;52.222;21.246;2023-01-15T05:41:35;11.27;;;5.25;;
22660;SDS011;11497;52.222;21.246;2023-01-15T05:46:50;6.90;;;4.22;;
22660;SDS011;11497;52.222;21.246;2023-01-15T05:49:20;10.43;;;4.97;;
22660;SDS011;11497;52.222;21.246;2023-01-15T05:51:50;8.23;;;4.63;;
22660;SDS011;11497;52.222;21.246;2023-01-15T05:54:20;7.38;;;4.50;;
22660;SDS011;11497;52.222;21.246;2023-01-15T05:56:53;9.27;;;4.97;;
22660;SDS011;11497;52.222;21.246;2023-01-15T05:59:22;7.97;;;4.70;;
22660;SDS011;11497;52.222;21.246;2023-01-15T06:01:51;11.70;;;4.80;;
22660;SDS011;11497;52.222;21.246;2023-01-15T06:04:20;7.15;;;4.43;;
22660;SDS011;11497;52.222;21.246;2023-01-15T06:06:48;6.35;;;4.30;;
22660;SDS011;11497;52.222;21.246;2023-01-15T06:09:17;8.63;;;4.38;;
22660;SDS011;11497;52.222;21.246;2023-01-15T06:11:49;7.82;;;4.95;;
22660;SDS011;11497;52.222;21.246;2023-01-15T06:14:19;8.68;;;4.40;;
22660;SDS011;11497;52.222;21.246;2023-01-15T06:16:47;10.18;;;4.85;;
22660;SDS011;11497;52.222;21.246;2023-01-15T06:19:15;7.75;;;4.20;;
22660;SDS011;11497;52.222;21.246;2023-01-15T06:21:42;8.57;;;4.00;;
22660;SDS011;11497;52.222;21.246;2023-01-15T06:24:10;7.32;;;4.00;;
22660;SDS011;11497;52.222;21.246;2023-01-15T06:26:38;6.95;;;4.25;;
22660;SDS011;11497;52.222;21.246;2023-01-15T06:29:06;5.55;;;3.42;;
22660;SDS011;11497;52.222;21.246;2023-01-15T06:31:34;5.65;;;3.65;;
22660;SDS011;11497;52.222;21.246;2023-01-15T06:34:02;5.75;;;3.75;;
22660;SDS011;11497;52.222;21.246;2023-01-15T06:36:30;7.93;;;4.03;;
22660;SDS011;11497;52.222;21.246;2023-01-15T06:38:58;7.50;;;4.38;;
22660;SDS011;11497;52.222;21.246;2023-01-15T06:41:26;8.02;;;4.00;;
22660;SDS011;11497;52.222;21.246;2023-01-15T06:44:13;8.18;;;4.38;;
22660;SDS011;11497;52.222;21.246;2023-01-15T06:47:04;7.63;;;3.47;;
22660;SDS011;11497;52.222;21.246;2023-01-15T06:49:51;5.95;;;4.03;;
22660;SDS011;11497;52.222;21.246;2023-01-15T06:52:24;8.70;;;4.63;;
22660;SDS011;11497;52.222;21.246;2023-01-15T06:54:53;5.28;;;3.05;;
22660;SDS011;11497;52.222;21.246;2023-01-15T06:57:21;6.75;;;4.25;;
22660;SDS011;11497;52.222;21.246;2023-01-15T06:59:49;6.75;;;4.22;;
22660;SDS011;11497;52.222;21.246;2023-01-15T07:02:18;7.82;;;4.10;;
22660;SDS011;11497;52.222;21.246;2023-01-15T07:04:47;8.02;;;3.67;;
22660;SDS011;11497;52.222;21.246;2023-01-15T07:07:16;7.22;;;3.80;;
22660;SDS011;11497;52.222;21.246;2023-01-15T07:09:46;6.70;;;4.18;;
22660;SDS011;11497;52.222;21.246;2023-01-15T07:12:14;6.50;;;3.92;;
22660;SDS011;11497;52.222;21.246;2023-01-15T07:14:42;6.75;;;3.78;;
22660;SDS011;11497;52.222;21.246;2023-01-15T07:17:10;7.30;;;4.07;;
22660;SDS011;11497;52.222;21.246;2023-01-15T07:19:38;8.07;;;4.25;;
22660;SDS011;11497;52.222;21.246;2023-01-15T07:22:08;7.43;;;3.33;;
22660;SDS011;11497;52.222;21.246;2023-01-15T07:24:36;7.40;;;3.97;;
22660;SDS011;11497;52.222;21.246;2023-01-15T07:27:04;7.50;;;3.65;;
22660;SDS011;11497;52.222;21.246;2023-01-15T07:29:32;7.82;;;4.13;;
22660;SDS011;11497;52.222;21.246;2023-01-15T07:32:00;8.00;;;4.30;;
22660;SDS011;11497;52.222;21.246;2023-01-15T07:34:28;8.98;;;4.65;;
22660;SDS011;11497;52.222;21.246;2023-01-15T07:36:56;7.43;;;4.25;;
22660;SDS011;11497;52.222;21.246;2023-01-15T07:39:24;8.68;;;3.95;;
22660;SDS011;11497;52.222;21.246;2023-01-15T07:41:52;6.70;;;4.03;;
22660;SDS011;11497;52.222;21.246;2023-01-15T07:44:38;5.95;;;3.50;;
22660;SDS011;11497;52.222;21.246;2023-01-15T07:47:25;5.82;;;4.00;;
22660;SDS011;11497;52.222;21.246;2023-01-15T07:50:13;6.65;;;3.63;;
22660;SDS011;11497;52.222;21.246;2023-01-15T07:52:42;6.90;;;3.80;;
22660;SDS011;11497;52.222;21.246;2023-01-15T07:55:09;5.82;;;4.10;;
22660;SDS011;11497;52.222;21.246;2023-01-15T07:57:41;9.48;;;3.97;;
22660;SDS011;11497;52.222;21.246;2023-01-15T08:00:11;6.40;;;3.85;;
22660;SDS011;11497;52.222;21.246;2023-01-15T08:02:42;7.75;;;4.07;;
22660;SDS011;11497;52.222;21.246;2023-01-15T08:05:11;7.90;;;4.13;;
22660;SDS011;11497;52.222;21.246;2023-01-15T08:07:40;6.82;;;4.40;;
22660;SDS011;11497;52.222;21.246;2023-01-15T08:10:09;10.10;;;4.60;;
22660;SDS011;11497;52.222;21.246;2023-01-15T08:12:38;8.88;;;4.50;;
22660;SDS011;11497;52.222;21.246;2023-01-15T08:15:25;6.70;;;4.10;;
22660;SDS011;11497;52.222;21.246;2023-01-15T08:17:56;7.25;;;3.97;;
22660;SDS011;11497;52.222;21.246;2023-01-15T08:20:24;6.45;;;3.88;;
22660;SDS011;11497;52.222;21.246;2023-01-15T08:22:53;7.32;;;4.28;;
22660;SDS011;11497;52.222;21.246;2023-01-15T08:25:22;6.57;;;4.07;;
22660;SDS011;11497;52.222;21.246;2023-01-15T08:27:51;6.30;;;4.10;;
22660;SDS011;11497;52.222;21.246;2023-01-15T08:30:20;6.40;;;4.20;;
22660;SDS011;11497;52.222;21.246;2023-01-15T08:32:50;8.65;;;4.18;;
22660;SDS011;11497;52.222;21.246;2023-01-15T08:35:18;9.05;;;4.38;;
22660;SDS011;11497;52.222;21.246;2023-01-15T08:37:46;7.57;;;4.65;;
22660;SDS011;11497;52.222;21.246;2023-01-15T08:40:14;8.73;;;4.60;;
22660;SDS011;11497;52.222;21.246;2023-01-15T08:42:42;8.35;;;4.38;;
22660;SDS011;11497;52.222;21.246;2023-01-15T08:45:10;7.43;;;4.63;;
22660;SDS011;11497;52.222;21.246;2023-01-15T08:47:38;6.05;;;4.30;;
22660;SDS011;11497;52.222;21.246;2023-01-15T08:50:06;7.07;;;4.05;;
22660;SDS011;11497;52.222;21.246;2023-01-15T08:52:35;5.20;;;3.10;;
22660;SDS011;11497;52.222;21.246;2023-01-15T08:55:04;8.05;;;3.90;;
22660;SDS011;11497;52.222;21.246;2023-01-15T08:57:32;6.13;;;4.07;;
22660;SDS011;11497;52.222;21.246;2023-01-15T09:00:01;6.22;;;3.75;;
22660;SDS011;11497;52.222;21.246;2023-01-15T09:02:29;6.13;;;3.60;;
22660;SDS011;11497;52.222;21.246;2023-01-15T09:04:57;7.40;;;4.18;;
22660;SDS011;11497;52.222;21.246;2023-01-15T09:07:25;6.30;;;4.15;;
22660;SDS011;11497;52.222;21.246;2023-01-15T09:09:53;8.68;;;4.65;;
22660;SDS011;11497;52.222;21.246;2023-01-15T09:12:21;7.55;;;3.83;;
22660;SDS011;11497;52.222;21.246;2023-01-15T09:14:52;4.28;;;2.78;;
22660;SDS011;11497;52.222;21.246;2023-01-15T09:17:29;6.85;;;3.72;;
22660;SDS011;11497;52.222;21.246;2023-01-15T09:19:58;7.47;;;4.25;;
22660;SDS011;11497;52.222;21.246;2023-01-15T09:22:27;6.75;;;4.10;;
22660;SDS011;11497;52.222;21.246;2023-01-15T09:24:56;8.82;;;4.13;;
22660;SDS011;11497;52.222;21.246;2023-01-15T09:27:26;5.88;;;4.20;;
22660;SDS011;11497;52.222;21.246;2023-01-15T09:29:54;7.05;;;4.03;;
22660;SDS011;11497;52.222;21.246;2023-01-15T09:32:23;8.13;;;3.53;;
22660;SDS011;11497;52.222;21.246;2023-01-15T09:34:50;7.82;;;4.20;;
22660;SDS011;11497;52.222;21.246;2023-01-15T09:37:19;8.73;;;4.70;;
22660;SDS011;11497;52.222;21.246;2023-01-15T09:39:46;8.57;;;4.85;;
22660;SDS011;11497;52.222;21.246;2023-01-15T09:47:26;8.38;;;4.80;;
22660;SDS011;11497;52.222;21.246;2023-01-15T09:55:31;9.45;;;4.50;;
22660;SDS011;11497;52.222;21.246;2023-01-15T09:58:02;7.25;;;5.03;;
22660;SDS011;11497;52.222;21.246;2023-01-15T10:00:37;10.95;;;5.00;;
22660;SDS011;11497;52.222;21.246;2023-01-15T10:03:10;7.03;;;4.63;;
22660;SDS011;11497;52.222;21.246;2023-01-15T10:08:43;14.93;;;4.90;;
22660;SDS011;11497;52.222;21.246;2023-01-15T10:13:45;11.05;;;5.63;;
22660;SDS011;11497;52.222;21.246;2023-01-15T10:16:27;8.23;;;5.05;;
22660;SDS011;11497;52.222;21.246;2023-01-15T10:18:59;10.77;;;5.18;;
22660;SDS011;11497;52.222;21.246;2023-01-15T10:21:30;9.85;;;5.22;;
22660;SDS011;11497;52.222;21.246;2023-01-15T10:24:16;11.60;;;6.35;;
22660;SDS011;11497;52.222;21.246;2023-01-15T10:26:58;11.60;;;5.88;;
22660;SDS011;11497;52.222;21.246;2023-01-15T10:29:43;11.80;;;5.50;;
22660;SDS011;11497;52.222;21.246;2023-01-15T10:46:01;11.90;;;6.15;;
22660;SDS011;11497;52.222;21.246;2023-01-15T10:48:39;12.43;;;6.55;;
22660;SDS011;11497;52.222;21.246;2023-01-15T10:51:22;12.52;;;6.75;;
22660;SDS011;11497;52.222;21.246;2023-01-15T10:54:40;14.45;;;6.78;;
22660;SDS011;11497;52.222;21.246;2023-01-15T10:59:35;12.77;;;7.40;;
22660;SDS011;11497;52.222;21.246;2023-01-15T11:02:18;11.07;;;6.75;;
22660;SDS011;11497;52.222;21.246;2023-01-15T11:04:58;13.45;;;5.85;;
22660;SDS011;11497;52.222;21.246;2023-01-15T11:07:34;11.60;;;7.00;;
22660;SDS011;11497;52.222;21.246;2023-01-15T11:10:25;11.60;;;7.28;;
22660;SDS011;11497;52.222;21.246;2023-01-15T11:12:53;15.50;;;7.25;;
22660;SDS011;11497;52.222;21.246;2023-01-15T11:15:46;13.55;;;6.97;;
22660;SDS011;11497;52.222;21.246;2023-01-15T11:18:35;14.02;;;7.40;;
22660;SDS011;11497;52.222;21.246;2023-01-15T11:21:26;13.02;;;6.80;;
22660;SDS011;11497;52.222;21.246;2023-01-15T11:23:56;14.73;;;7.88;;
22660;SDS011;11497;52.222;21.246;2023-01-15T11:26:29;14.35;;;7.68;;
22660;SDS011;11497;52.222;21.246;2023-01-15T11:28:59;11.15;;;6.15;;
22660;SDS011;11497;52.222;21.246;2023-01-15T11:31:40;13.70;;;7.07;;
22660;SDS011;11497;52.222;21.246;2023-01-15T11:34:17;18.20;;;7.82;;
22660;SDS011;11497;52.222;21.246;2023-01-15T11:37:02;15.35;;;7.47;;
22660;SDS011;11497;52.222;21.246;2023-01-15T11:39:31;15.15;;;8.05;;
22660;SDS011;11497;52.222;21.246;2023-01-15T11:42:03;11.48;;;5.95;;
22660;SDS011;11497;52.222;21.246;2023-01-15T11:44:52;16.13;;;8.10;;
22660;SDS011;11497;52.222;21.246;2023-01-15T11:47:52;19.45;;;8.25;;
22660;SDS011;11497;52.222;21.246;2023-01-15T11:50:59;14.85;;;7.22;;
22660;SDS011;11497;52.222;21.246;2023-01-15T11:53:45;14.45;;;7.90;;
22660;SDS011;11497;52.222;21.246;2023-01-15T11:56:20;12.65;;;7.90;;
22660;SDS011;11497;52.222;21.246;2023-01-15T11:58:53;14.07;;;7.28;;
22660;SDS011;11497;52.222;21.246;2023-01-15T12:01:24;19.25;;;8.20;;
22660;SDS011;11497;52.222;21.246;2023-01-15T12:03:59;10.25;;;6.22;;
22660;SDS011;11497;52.222;21.246;2023-01-15T12:06:30;15.13;;;8.02;;
22660;SDS011;11497;52.222;21.246;2023-01-15T12:17:26;15.38;;;7.05;;
22660;SDS011;11497;52.222;21.246;2023-01-15T12:25:19;17.05;;;8.07;;
22660;SDS011;11497;52.222;21.246;2023-01-15T12:28:22;19.40;;;8.20;;
22660;SDS011;11497;52.222;21.246;2023-01-15T12:33:34;16.13;;;7.85;;
22660;SDS011;11497;52.222;21.246;2023-01-15T12:36:29;17.13;;;8.02;;
22660;SDS011;11497;52.222;21.246;2023-01-15T12:39:16;16.83;;;8.52;;
22660;SDS011;11497;52.222;21.246;2023-01-15T12:41:53;14.85;;;8.02;;
22660;SDS011;11497;52.222;21.246;2023-01-15T12:44:45;15.63;;;8.73;;
22660;SDS011;11497;52.222;21.246;2023-01-15T12:50:37;14.30;;;7.32;;
22660;SDS011;11497;52.222;21.246;2023-01-15T13:10:01;20.23;;;9.30;;
22660;SDS011;11497;52.222;21.246;2023-01-15T13:12:45;20.45;;;9.85;;
22660;SDS011;11497;52.222;21.246;2023-01-15T13:15:14;16.58;;;8.93;;
22660;SDS011;11497;52.222;21.246;2023-01-15T13:20:48;16.48;;;9.23;;
22660;SDS011;11497;52.222;21.246;2023-01-15T13:31:29;16.58;;;9.15;;
22660;SDS011;11497;52.222;21.246;2023-01-15T13:37:26;16.02;;;8.40;;
22660;SDS011;11497;52.222;21.246;2023-01-15T13:39:54;15.75;;;9.05;;
22660;SDS011;11497;52.222;21.246;2023-01-15T13:42:27;15.93;;;8.85;;
22660;SDS011;11497;52.222;21.246;2023-01-15T13:47:57;19.73;;;8.73;;
22660;SDS011;11497;52.222;21.246;2023-01-15T13:50:32;19.90;;;9.82;;
22660;SDS011;11497;52.222;21.246;2023-01-15T13:53:07;12.05;;;6.97;;
22660;SDS011;11497;52.222;21.246;2023-01-15T13:55:48;15.00;;;8.68;;
22660;SDS011;11497;52.222;21.246;2023-01-15T13:58:28;17.67;;;9.15;;
22660;SDS011;11497;52.222;21.246;2023-01-15T14:04:06;15.30;;;8.60;;
22660;SDS011;11497;52.222;21.246;2023-01-15T14:06:47;15.63;;;8.68;;
22660;SDS011;11497;52.222;21.246;2023-01-15T14:28:37;18.52;;;9.32;;
22660;SDS011;11497;52.222;21.246;2023-01-15T14:32:00;17.40;;;9.20;;
22660;SDS011;11497;52.222;21.246;2023-01-15T14:34:13;17.60;;;9.98;;
22660;SDS011;11497;52.222;21.246;2023-01-15T14:36:53;19.13;;;9.18;;
22660;SDS011;11497;52.222;21.246;2023-01-15T14:39:32;17.30;;;10.02;;
22660;SDS011;11497;52.222;21.246;2023-01-15T14:42:14;20.52;;;10.18;;
22660;SDS011;11497;52.222;21.246;2023-01-15T14:45:06;18.10;;;9.00;;
22660;SDS011;11497;52.222;21.246;2023-01-15T14:50:26;19.50;;;10.07;;
22660;SDS011;11497;52.222;21.246;2023-01-15T14:53:01;19.38;;;10.15;;
22660;SDS011;11497;52.222;21.246;2023-01-15T14:58:41;18.23;;;9.70;;
22660;SDS011;11497;52.222;21.246;2023-01-15T15:07:02;19.20;;;10.77;;
22660;SDS011;11497;52.222;21.246;2023-01-15T15:17:56;18.40;;;10.55;;
22660;SDS011;11497;52.222;21.246;2023-01-15T15:25:56;21.85;;;11.25;;
22660;SDS011;11497;52.222;21.246;2023-01-15T15:28:30;23.52;;;11.48;;
22660;SDS011;11497;52.222;21.246;2023-01-15T15:30:58;21.60;;;11.50;;
22660;SDS011;11497;52.222;21.246;2023-01-15T15:33:35;21.10;;;11.02;;
22660;SDS011;11497;52.222;21.246;2023-01-15T15:36:06;20.17;;;11.00;;
22660;SDS011;11497;52.222;21.246;2023-01-15T15:38:35;23.13;;;11.70;;
22660;SDS011;11497;52.222;21.246;2023-01-15T15:41:09;21.50;;;11.35;;
22660;SDS011;11497;52.222;21.246;2023-01-15T15:43:43;24.05;;;12.18;;
22660;SDS011;11497;52.222;21.246;2023-01-15T15:46:36;24.98;;;11.48;;
22660;SDS011;11497;52.222;21.246;2023-01-15T15:49:23;22.40;;;10.45;;
22660;SDS011;11497;52.222;21.246;2023-01-15T15:51:51;18.40;;;10.65;;
22660;SDS011;11497;52.222;21.246;2023-01-15T15:54:26;25.92;;;11.38;;
22660;SDS011;11497;52.222;21.246;2023-01-15T15:59:49;21.20;;;11.07;;
22660;SDS011;11497;52.222;21.246;2023-01-15T16:05:19;20.02;;;11.63;;
22660;SDS011;11497;52.222;21.246;2023-01-15T16:07:49;22.55;;;11.65;;
22660;SDS011;11497;52.222;21.246;2023-01-15T16:10:52;24.27;;;11.18;;
22660;SDS011;11497;52.222;21.246;2023-01-15T16:13:30;19.67;;;10.50;;
22660;SDS011;11497;52.222;21.246;2023-01-15T16:16:05;23.13;;;10.88;;
22660;SDS011;11497;52.222;21.246;2023-01-15T16:18:55;20.95;;;10.50;;
22660;SDS011;11497;52.222;21.246;2023-01-15T16:21:36;20.85;;;11.27;;
22660;SDS011;11497;52.222;21.246;2023-01-15T16:24:08;17.58;;;10.55;;
22660;SDS011;11497;52.222;21.246;2023-01-15T16:26:51;22.05;;;10.88;;
22660;SDS011;11497;52.222;21.246;2023-01-15T16:29:37;19.00;;;10.68;;
22660;SDS011;11497;52.222;21.246;2023-01-15T16:32:09;21.08;;;10.75;;
22660;SDS011;11497;52.222;21.246;2023-01-15T16:34:38;23.95;;;11.88;;
22660;SDS011;11497;52.222;21.246;2023-01-15T16:37:24;24.95;;;11.98;;
22660;SDS011;11497;52.222;21.246;2023-01-15T16:39:57;19.48;;;9.88;;
22660;SDS011;11497;52.222;21.246;2023-01-15T16:42:34;18.95;;;11.02;;
22660;SDS011;11497;52.222;21.246;2023-01-15T16:45:26;22.85;;;11.75;;
22660;SDS011;11497;52.222;21.246;2023-01-15T16:50:34;22.23;;;10.90;;
22660;SDS011;11497;52.222;21.246;2023-01-15T16:53:28;22.33;;;11.05;;
22660;SDS011;11497;52.222;21.246;2023-01-15T16:55:59;22.40;;;11.23;;
22660;SDS011;11497;52.222;21.246;2023-01-15T16:58:31;23.05;;;12.55;;
22660;SDS011;11497;52.222;21.246;2023-01-15T17:04:29;25.67;;;12.82;;
22660;SDS011;11497;52.222;21.246;2023-01-15T17:07:06;26.15;;;12.40;;
22660;SDS011;11497;52.222;21.246;2023-01-15T17:09:45;22.60;;;11.63;;
22660;SDS011;11497;52.222;21.246;2023-01-15T17:12:32;22.10;;;11.38;;
22660;SDS011;11497;52.222;21.246;2023-01-15T17:17:43;22.63;;;11.50;;
22660;SDS011;11497;52.222;21.246;2023-01-15T17:20:16;22.15;;;10.70;;
22660;SDS011;11497;52.222;21.246;2023-01-15T17:22:46;21.50;;;11.05;;
22660;SDS011;11497;52.222;21.246;2023-01-15T17:25:31;21.42;;;11.32;;
22660;SDS011;11497;52.222;21.246;2023-01-15T17:28:01;20.65;;;10.85;;
22660;SDS011;11497;52.222;21.246;2023-01-15T17:30:30;18.63;;;10.60;;
22660;SDS011;11497;52.222;21.246;2023-01-15T17:32:59;20.13;;;10.45;;
22660;SDS011;11497;52.222;21.246;2023-01-15T17:35:32;23.02;;;11.25;;
22660;SDS011;11497;52.222;21.246;2023-01-15T17:38:02;20.33;;;9.73;;
22660;SDS011;11497;52.222;21.246;2023-01-15T17:40:32;19.08;;;10.07;;
22660;SDS011;11497;52.222;21.246;2023-01-15T17:43:00;18.58;;;9.55;;
22660;SDS011;11497;52.222;21.246;2023-01-15T17:45:29;20.60;;;9.93;;
22660;SDS011;11497;52.222;21.246;2023-01-15T17:47:58;19.48;;;9.93;;
22660;SDS011;11497;52.222;21.246;2023-01-15T17:50:28;15.70;;;8.57;;
22660;SDS011;11497;52.222;21.246;2023-01-15T17:52:56;18.92;;;9.63;;
22660;SDS011;11497;52.222;21.246;2023-01-15T17:55:24;18.77;;;9.55;;
22660;SDS011;11497;52.222;21.246;2023-01-15T17:58:11;20.27;;;10.15;;